logo
Rechercher aéroport 
image banner adimage banner adimage banner ad
image banner ad

EIBT - Belmullet

Situé à Carn Nash, Ireland

ICAO - EIBT, IATA - BLY

Données fournies par Airmate  

Information générale

Coordonnées: N54°13'22" W10°1'51"
Élévation : 100 feet MSL.
Variation magnétique : -5.550° East
Voir autres Aéroports à County Mayo

Données opérationnelles

Special qualification required
Heure actuelle UTC:
Heure actuelle locale:
Météo à : - ( 0 km )
METAR: TXKF 201155Z 26019KT 9999 BKN008 BKN026 BKN300 23/22 Q1010
Voir NOTAMs / SUP AIP / TFR affectant cet aéroport [VIEW]
Fréquences de communication: [VIEW]

Pistes:

Identifiant RWYQFULongueur (ft)Largeur (ft)SurfaceLDA (ft)
07147659GRASS
25147659GRASS

Coordonnées de l'aéroport

Adresse: Carn Nash Ireland

Vue satellite de EIBT